createdAt,value
2022-08-16T00:01:10.522Z,23.86
2022-08-16T00:04:01.879Z,23.84
2022-08-16T00:06:53.714Z,23.76
2022-08-16T00:09:42.861Z,23.72
2022-08-16T00:12:32.156Z,23.68
2022-08-16T00:15:24.740Z,23.63
2022-08-16T00:18:33.544Z,23.57
2022-08-16T00:21:23.327Z,23.54
2022-08-16T00:24:12.755Z,23.41
2022-08-16T00:27:01.713Z,23.41
2022-08-16T00:30:00.595Z,23.41
2022-08-16T00:33:00.186Z,23.38
2022-08-16T00:35:48.641Z,23.35
2022-08-16T00:38:43.242Z,23.36
2022-08-16T00:41:33.170Z,23.26
2022-08-16T00:44:31.883Z,23.31
2022-08-16T00:47:22.606Z,23.21
2022-08-16T00:50:12.320Z,23.21
2022-08-16T00:53:01.260Z,23.28
2022-08-16T00:55:56.117Z,23.24
2022-08-16T00:58:47.432Z,23.19
2022-08-16T01:01:36.060Z,23.09
2022-08-16T01:04:29.986Z,23.02
2022-08-16T01:07:18.946Z,22.96
2022-08-16T01:10:16.474Z,22.97
2022-08-16T01:13:12.110Z,22.97
2022-08-16T01:16:03.895Z,22.83
2022-08-16T01:19:08.862Z,22.73
2022-08-16T01:22:47.700Z,22.72
2022-08-16T01:25:19.115Z,22.65
2022-08-16T01:28:19.831Z,22.64
2022-08-16T01:31:10.769Z,22.70
2022-08-16T01:33:59.373Z,22.62
2022-08-16T01:36:48.257Z,22.61
2022-08-16T01:39:47.599Z,22.55
2022-08-16T01:42:37.604Z,22.67
2022-08-16T01:45:39.806Z,22.70
2022-08-16T01:48:32.634Z,22.81
2022-08-16T01:51:25.660Z,22.79
2022-08-16T01:54:15.359Z,22.81
2022-08-16T01:57:13.216Z,22.77
2022-08-16T02:00:10.521Z,22.75
2022-08-16T02:03:08.366Z,22.66
2022-08-16T02:06:01.066Z,22.72
2022-08-16T02:08:51.198Z,22.68
2022-08-16T02:11:47.764Z,22.54
2022-08-16T02:14:38.318Z,22.45
2022-08-16T02:17:28.644Z,22.50
2022-08-16T02:20:19.896Z,22.55
2022-08-16T02:23:17.221Z,22.46
2022-08-16T02:26:06.702Z,22.53
2022-08-16T02:28:56.753Z,22.47
2022-08-16T02:32:03.332Z,22.35
2022-08-16T02:34:56.555Z,22.31
2022-08-16T02:37:53.048Z,21.60
2022-08-16T02:40:44.750Z,21.94
2022-08-16T02:43:35.230Z,21.62
2022-08-16T02:46:33.322Z,21.78
2022-08-16T02:49:59.168Z,22.05
2022-08-16T02:52:34.249Z,22.08
2022-08-16T02:55:41.185Z,22.04
2022-08-16T02:58:32.696Z,21.74
2022-08-16T03:01:33.663Z,21.57
2022-08-16T03:04:50.562Z,21.52
2022-08-16T03:07:50.816Z,21.58
2022-08-16T03:10:40.666Z,21.78
2022-08-16T03:13:29.393Z,21.77
2022-08-16T03:16:38.023Z,21.40
2022-08-16T03:19:47.024Z,21.33
2022-08-16T03:22:36.795Z,21.51
2022-08-16T03:25:40.907Z,21.61
2022-08-16T03:28:33.319Z,21.65
2022-08-16T03:31:22.064Z,21.70
2022-08-16T03:34:11.341Z,21.75
2022-08-16T03:37:02.332Z,21.79
2022-08-16T03:39:56.594Z,21.88
2022-08-16T03:43:19.150Z,21.90
2022-08-16T03:46:02.206Z,21.86
2022-08-16T03:48:56.962Z,21.94
2022-08-16T03:51:45.539Z,21.96
2022-08-16T03:54:53.736Z,21.95
2022-08-16T03:57:52.358Z,21.97
2022-08-16T04:00:44.837Z,21.90
2022-08-16T04:03:37.630Z,21.83
2022-08-16T04:06:26.558Z,21.88
2022-08-16T04:09:15.936Z,21.91
2022-08-16T04:12:11.046Z,21.93
2022-08-16T04:15:17.265Z,21.97
2022-08-16T04:18:24.166Z,21.98
2022-08-16T04:21:14.938Z,22.01
2022-08-16T04:24:18.014Z,22.00
2022-08-16T04:27:09.080Z,21.65
2022-08-16T04:30:03.052Z,21.77
2022-08-16T04:32:55.759Z,21.72
2022-08-16T04:35:49.545Z,21.49
2022-08-16T04:38:38.655Z,21.68
2022-08-16T04:41:32.852Z,21.56
2022-08-16T04:44:32.726Z,22.14
2022-08-16T04:47:36.812Z,22.53
2022-08-16T04:50:33.085Z,22.62
2022-08-16T04:53:41.727Z,22.67
2022-08-16T04:56:31.119Z,22.76
2022-08-16T04:59:19.495Z,22.46
2022-08-16T05:02:41.917Z,22.71
2022-08-16T05:05:17.874Z,22.85
2022-08-16T05:08:29.424Z,22.87
2022-08-16T05:11:22.559Z,22.10
2022-08-16T05:14:11.550Z,21.57
2022-08-16T05:17:09.545Z,22.12
2022-08-16T05:20:00.433Z,21.40
2022-08-16T05:22:57.582Z,21.46
2022-08-16T05:25:48.257Z,21.08
2022-08-16T05:28:40.183Z,20.59
2022-08-16T05:31:31.217Z,20.89
2022-08-16T05:34:22.471Z,20.81
2022-08-16T05:37:16.124Z,20.40
2022-08-16T05:40:07.947Z,20.39
2022-08-16T05:42:57.487Z,20.15
2022-08-16T05:45:50.960Z,19.97
2022-08-16T05:48:39.690Z,19.94
2022-08-16T05:51:38.181Z,19.71
2022-08-16T05:54:29.810Z,20.28
2022-08-16T05:57:23.141Z,20.50
2022-08-16T06:00:22.336Z,20.30
2022-08-16T06:03:15.683Z,20.47
2022-08-16T06:06:28.117Z,20.99
2022-08-16T06:09:19.861Z,20.45
2022-08-16T06:12:09.386Z,21.02
2022-08-16T06:15:01.812Z,21.45
2022-08-16T06:17:52.743Z,21.39
2022-08-16T06:20:55.262Z,21.54
2022-08-16T06:23:45.596Z,21.65
2022-08-16T06:26:37.460Z,21.91
2022-08-16T06:29:34.647Z,21.80
2022-08-16T06:32:27.316Z,22.06
2022-08-16T06:35:18.802Z,22.05
2022-08-16T06:38:32.048Z,22.45
2022-08-16T06:41:20.387Z,22.69
2022-08-16T06:44:20.643Z,22.85
2022-08-16T06:47:17.182Z,22.91
2022-08-16T06:50:07.630Z,23.21
2022-08-16T06:53:08.522Z,23.34
2022-08-16T06:56:14.676Z,23.39
2022-08-16T06:59:48.654Z,23.36
2022-08-16T07:02:51.409Z,23.57
2022-08-16T07:05:41.961Z,23.89
2022-08-16T07:08:37.873Z,24.25
2022-08-16T07:11:47.970Z,24.45
2022-08-16T07:14:48.000Z,24.72
2022-08-16T07:17:39.014Z,24.87
2022-08-16T07:20:43.583Z,24.77
2022-08-16T07:23:39.120Z,25.03
2022-08-16T07:26:31.731Z,25.13
2022-08-16T07:29:20.059Z,25.10
2022-08-16T07:32:10.836Z,25.27
2022-08-16T07:34:59.540Z,25.32
2022-08-16T07:37:48.579Z,25.06
2022-08-16T07:41:01.980Z,25.02
2022-08-16T07:43:56.660Z,25.15
2022-08-16T07:46:47.294Z,25.36
2022-08-16T07:49:52.863Z,25.02
2022-08-16T07:52:50.289Z,25.18
2022-08-16T07:55:45.912Z,24.66
2022-08-16T07:58:43.342Z,24.40
2022-08-16T08:01:38.629Z,24.87
2022-08-16T08:04:32.476Z,25.45
2022-08-16T08:07:27.680Z,25.63
2022-08-16T08:10:29.166Z,25.91
2022-08-16T08:13:20.197Z,25.86
2022-08-16T08:16:29.492Z,26.24
2022-08-16T08:19:21.329Z,25.87
2022-08-16T08:22:19.340Z,26.63
2022-08-16T08:25:16.291Z,26.74
2022-08-16T08:28:05.542Z,26.56
2022-08-16T08:31:03.876Z,26.41
2022-08-16T08:34:00.849Z,26.80
2022-08-16T08:36:55.618Z,26.67
2022-08-16T08:40:14.057Z,27.07
2022-08-16T08:43:12.646Z,28.09
2022-08-16T08:46:21.224Z,28.72
2022-08-16T08:49:11.466Z,28.77
2022-08-16T08:52:07.985Z,29.01
2022-08-16T08:54:56.978Z,29.29
2022-08-16T08:57:47.630Z,29.25
2022-08-16T09:00:54.863Z,29.42
2022-08-16T09:03:49.968Z,29.77
2022-08-16T09:06:43.709Z,29.95
2022-08-16T09:09:41.037Z,29.99
2022-08-16T09:12:36.408Z,30.11
2022-08-16T09:15:32.978Z,29.88
2022-08-16T09:18:24.987Z,29.69
2022-08-16T09:21:16.676Z,29.17
2022-08-16T09:24:10.073Z,28.67
2022-08-16T09:27:03.622Z,29.20
2022-08-16T09:29:59.779Z,29.77
2022-08-16T09:32:54.851Z,29.96
2022-08-16T09:35:43.329Z,30.02
2022-08-16T09:38:32.929Z,29.84
2022-08-16T09:41:21.326Z,30.07
2022-08-16T09:45:09.580Z,29.30
2022-08-16T09:47:23.532Z,29.64
2022-08-16T09:50:13.870Z,30.35
2022-08-16T09:53:16.735Z,30.57
2022-08-16T09:56:11.325Z,29.88
2022-08-16T09:59:04.977Z,29.43
2022-08-16T10:01:57.772Z,29.98
2022-08-16T10:04:52.928Z,29.98
2022-08-16T10:07:45.405Z,30.25
2022-08-16T10:10:34.383Z,30.57
2022-08-16T10:13:21.779Z,30.65
2022-08-16T10:19:06.475Z,30.64
2022-08-16T10:21:56.622Z,30.96
2022-08-16T10:24:56.074Z,30.45
2022-08-16T10:27:53.340Z,30.45
2022-08-16T10:30:45.664Z,30.56
2022-08-16T10:33:35.344Z,29.95
2022-08-16T10:36:38.834Z,30.47
2022-08-16T10:39:41.147Z,30.17
2022-08-16T10:42:30.898Z,30.77
2022-08-16T10:45:20.326Z,30.81
2022-08-16T10:48:27.251Z,30.53
2022-08-16T10:51:17.295Z,31.36
2022-08-16T10:54:08.436Z,31.69
2022-08-16T10:57:17.031Z,32.24
2022-08-16T11:00:21.732Z,32.22
2022-08-16T11:06:20.176Z,31.30
2022-08-16T11:09:25.256Z,31.99
2022-08-16T11:12:14.970Z,32.11
2022-08-16T11:15:12.029Z,32.73
2022-08-16T11:21:09.583Z,32.54
2022-08-16T11:24:42.489Z,32.59
2022-08-16T11:27:35.390Z,33.20
2022-08-16T11:30:28.434Z,31.68
2022-08-16T11:36:36.767Z,33.38
2022-08-16T11:39:27.214Z,33.77
2022-08-16T11:42:23.073Z,34.34
2022-08-16T11:45:17.836Z,34.45
2022-08-16T11:48:08.785Z,34.27
2022-08-16T11:50:58.570Z,34.61
2022-08-16T11:53:47.136Z,35.04
2022-08-16T11:56:51.896Z,34.76
2022-08-16T11:59:41.708Z,33.49
2022-08-16T12:02:31.894Z,33.26
2022-08-16T12:05:21.596Z,33.34
2022-08-16T12:08:12.665Z,33.60
2022-08-16T12:11:02.425Z,33.61
2022-08-16T12:13:53.315Z,34.31
2022-08-16T12:16:48.614Z,34.08
2022-08-16T12:19:44.217Z,34.88
2022-08-16T12:22:33.994Z,36.18
2022-08-16T12:25:27.839Z,37.18
2022-08-16T12:28:16.912Z,37.93
2022-08-16T12:31:27.214Z,38.17
2022-08-16T12:34:28.683Z,37.44
2022-08-16T12:37:17.767Z,36.56
2022-08-16T12:40:23.813Z,35.60
2022-08-16T12:43:14.525Z,35.91
2022-08-16T12:46:03.737Z,35.77
2022-08-16T12:48:58.209Z,34.54
2022-08-16T12:51:58.873Z,34.71
2022-08-16T12:54:54.903Z,34.66
2022-08-16T12:57:44.565Z,34.23
2022-08-16T13:00:48.544Z,33.44
2022-08-16T13:03:40.631Z,31.77
2022-08-16T13:06:33.699Z,31.47
2022-08-16T13:09:26.665Z,30.16
2022-08-16T13:12:20.109Z,29.52
2022-08-16T13:15:12.632Z,29.68
2022-08-16T13:18:01.117Z,29.82
2022-08-16T13:20:59.671Z,29.35
2022-08-16T13:23:49.468Z,29.80
2022-08-16T13:26:39.643Z,29.13
2022-08-16T13:29:43.661Z,28.71
2022-08-16T13:32:40.654Z,28.76
2022-08-16T13:35:34.512Z,28.41
2022-08-16T13:38:26.089Z,28.64
2022-08-16T13:41:19.466Z,28.72
2022-08-16T13:44:09.458Z,28.37
2022-08-16T13:46:58.126Z,28.60
2022-08-16T13:49:47.142Z,29.05
2022-08-16T13:52:39.965Z,29.06
2022-08-16T13:55:29.109Z,29.20
2022-08-16T13:58:37.367Z,29.70
2022-08-16T14:01:28.016Z,29.50
2022-08-16T14:04:26.139Z,29.77
2022-08-16T14:07:19.952Z,29.84
2022-08-16T14:10:15.326Z,29.90
2022-08-16T14:13:03.950Z,30.24
2022-08-16T14:15:55.793Z,30.28
2022-08-16T14:18:44.189Z,30.22
2022-08-16T14:21:35.856Z,30.21
2022-08-16T14:24:30.109Z,30.12
2022-08-16T14:27:21.349Z,30.19
2022-08-16T14:30:15.609Z,30.56
2022-08-16T14:33:06.225Z,30.88
2022-08-16T14:35:55.161Z,31.40
2022-08-16T14:38:43.571Z,30.92
2022-08-16T14:41:32.067Z,30.92
2022-08-16T14:44:20.535Z,31.59
2022-08-16T14:47:09.348Z,31.11
2022-08-16T14:50:01.837Z,31.00
2022-08-16T14:52:56.594Z,32.10
2022-08-16T14:55:46.248Z,32.58
2022-08-16T14:58:38.121Z,32.91
2022-08-16T15:01:57.441Z,33.04
2022-08-16T15:04:40.086Z,33.19
2022-08-16T15:07:40.143Z,33.41
2022-08-16T15:10:29.351Z,33.63
2022-08-16T15:13:21.599Z,33.69
2022-08-16T15:16:10.095Z,33.90
2022-08-16T15:18:59.474Z,33.85
2022-08-16T15:21:53.694Z,33.89
2022-08-16T15:24:44.306Z,33.94
2022-08-16T15:27:36.782Z,34.08
2022-08-16T15:30:56.707Z,33.83
2022-08-16T15:33:43.306Z,33.81
2022-08-16T15:36:32.153Z,33.94
2022-08-16T15:39:26.955Z,33.65
2022-08-16T15:42:27.397Z,33.67
2022-08-16T15:45:38.098Z,33.84
2022-08-16T15:48:30.413Z,33.95
2022-08-16T15:51:18.921Z,33.77
2022-08-16T15:54:29.387Z,33.58
2022-08-16T15:57:17.209Z,34.25
2022-08-16T16:00:26.584Z,34.53
2022-08-16T16:03:17.404Z,34.65
2022-08-16T16:06:06.009Z,34.81
2022-08-16T16:08:54.635Z,35.07
2022-08-16T16:11:43.264Z,35.22
2022-08-16T16:14:32.006Z,35.27
2022-08-16T16:17:21.957Z,35.18
2022-08-16T16:20:14.878Z,34.77
2022-08-16T16:23:10.569Z,34.93
2022-08-16T16:26:05.789Z,34.87
2022-08-16T16:29:07.902Z,34.90
2022-08-16T16:32:05.878Z,34.55
2022-08-16T16:34:59.026Z,35.42
2022-08-16T16:37:48.766Z,35.61
2022-08-16T16:40:46.560Z,34.96
2022-08-16T16:43:45.192Z,34.54
2022-08-16T16:46:42.487Z,34.71
2022-08-16T16:49:33.850Z,34.81
2022-08-16T16:52:31.354Z,34.64
2022-08-16T16:55:33.355Z,34.60
2022-08-16T16:58:53.978Z,34.60
2022-08-16T17:01:59.384Z,34.61
2022-08-16T17:04:50.157Z,34.07
2022-08-16T17:07:40.633Z,34.40
2022-08-16T17:13:39.230Z,34.48
2022-08-16T17:16:33.017Z,34.66
2022-08-16T17:19:23.868Z,34.56
2022-08-16T17:22:15.518Z,34.41
2022-08-16T17:25:07.588Z,34.54
2022-08-16T17:27:56.700Z,34.55
2022-08-16T17:30:47.939Z,34.40
2022-08-16T17:33:54.812Z,33.89
2022-08-16T17:36:52.692Z,33.67
2022-08-16T17:39:26.047Z,34.47
2022-08-16T17:39:59.737Z,33.66
2022-08-16T17:42:53.577Z,33.64
2022-08-16T17:45:43.422Z,33.36
2022-08-16T17:48:32.555Z,32.99
2022-08-16T17:51:21.444Z,32.63
2022-08-16T17:54:20.248Z,32.28
2022-08-16T17:57:18.274Z,32.19
2022-08-16T18:00:15.840Z,31.96
2022-08-16T18:03:15.082Z,31.85
2022-08-16T18:06:15.813Z,31.59
2022-08-16T18:09:05.169Z,31.35
2022-08-16T18:11:54.995Z,31.14
2022-08-16T18:14:52.268Z,30.72
2022-08-16T18:17:43.988Z,30.78
2022-08-16T18:20:50.101Z,30.40
2022-08-16T18:23:38.907Z,30.49
2022-08-16T18:26:27.434Z,30.37
2022-08-16T18:29:16.332Z,30.15
2022-08-16T18:32:05.682Z,30.05
2022-08-16T18:34:55.491Z,29.60
2022-08-16T18:37:44.028Z,29.70
2022-08-16T18:40:33.249Z,29.83
2022-08-16T18:44:00.898Z,29.57
2022-08-16T18:46:32.379Z,29.60
2022-08-16T18:49:21.012Z,29.59
2022-08-16T18:52:25.538Z,29.51
2022-08-16T18:55:15.044Z,29.42
2022-08-16T18:58:04.725Z,29.26
2022-08-16T19:00:56.353Z,29.01
2022-08-16T19:03:45.581Z,28.54
2022-08-16T19:06:33.977Z,28.59
2022-08-16T19:09:23.789Z,28.54
2022-08-16T19:12:12.311Z,28.53
2022-08-16T19:15:07.255Z,28.23
2022-08-16T19:17:56.498Z,28.21
2022-08-16T19:20:45.818Z,28.09
2022-08-16T19:23:37.276Z,28.13
2022-08-16T19:26:27.171Z,28.31
2022-08-16T19:29:16.153Z,27.99
2022-08-16T19:32:05.852Z,28.02
2022-08-16T19:34:56.619Z,28.17
2022-08-16T19:37:46.143Z,27.90
2022-08-16T19:40:37.637Z,27.65
2022-08-16T19:43:28.301Z,27.13
2022-08-16T19:46:17.452Z,27.24
2022-08-16T19:49:05.961Z,27.33
2022-08-16T19:51:54.968Z,27.38
2022-08-16T19:54:44.115Z,27.63
2022-08-16T19:57:32.843Z,27.75
2022-08-16T20:00:24.262Z,27.72
2022-08-16T20:03:24.726Z,27.67
2022-08-16T20:06:13.412Z,27.66
2022-08-16T20:09:22.900Z,27.67
2022-08-16T20:12:13.240Z,27.66
2022-08-16T20:15:01.922Z,27.64
2022-08-16T20:17:52.070Z,27.64
2022-08-16T20:20:43.143Z,27.63
2022-08-16T20:23:31.597Z,27.58
2022-08-16T20:26:23.779Z,27.54
2022-08-16T20:29:12.199Z,27.45
2022-08-16T20:32:01.051Z,27.26
2022-08-16T20:34:53.579Z,27.14
2022-08-16T20:37:43.079Z,27.17
2022-08-16T20:40:35.049Z,27.21
2022-08-16T20:43:24.055Z,27.19
2022-08-16T20:46:12.640Z,27.21
2022-08-16T20:49:01.043Z,27.21
2022-08-16T20:51:55.884Z,27.23
2022-08-16T20:54:48.003Z,27.19
2022-08-16T20:57:38.025Z,27.28
2022-08-16T21:00:26.515Z,27.30
2022-08-16T21:03:15.452Z,27.33
2022-08-16T21:06:05.556Z,27.36
2022-08-16T21:08:55.554Z,27.34
2022-08-16T21:11:44.105Z,27.29
2022-08-16T21:14:34.310Z,27.16
2022-08-16T21:17:22.999Z,27.15
2022-08-16T21:20:12.727Z,27.05
2022-08-16T21:23:03.614Z,26.94
2022-08-16T21:25:59.308Z,26.77
2022-08-16T21:28:48.191Z,26.62
2022-08-16T21:31:37.021Z,26.59
2022-08-16T21:34:25.393Z,26.51
2022-08-16T21:37:15.718Z,26.44
2022-08-16T21:40:05.946Z,26.30
2022-08-16T21:42:56.210Z,26.21
2022-08-16T21:45:46.263Z,26.20
2022-08-16T21:48:36.315Z,26.30
2022-08-16T21:51:29.048Z,26.32
2022-08-16T21:54:17.557Z,26.34
2022-08-16T21:57:10.614Z,26.12
2022-08-16T22:00:01.013Z,26.18
2022-08-16T22:02:51.329Z,26.13
2022-08-16T22:05:42.677Z,26.14
2022-08-16T22:08:31.586Z,26.20
2022-08-16T22:11:20.768Z,26.23
2022-08-16T22:14:09.826Z,26.23
2022-08-16T22:16:59.813Z,26.27
2022-08-16T22:19:48.230Z,26.26
2022-08-16T22:22:37.542Z,26.27
2022-08-16T22:25:26.227Z,26.23
2022-08-16T22:28:15.886Z,26.19
2022-08-16T22:31:04.271Z,26.24
2022-08-16T22:33:56.815Z,26.25
2022-08-16T22:36:45.500Z,26.05
2022-08-16T22:39:34.111Z,25.57
2022-08-16T22:42:23.224Z,25.37
2022-08-16T22:45:13.247Z,25.38
2022-08-16T22:48:01.733Z,25.31
2022-08-16T22:50:51.794Z,25.41
2022-08-16T22:53:40.394Z,25.47
2022-08-16T22:56:29.383Z,25.49
2022-08-16T22:59:17.923Z,25.39
2022-08-16T23:02:09.937Z,25.39
2022-08-16T23:04:58.504Z,25.41
2022-08-16T23:07:49.212Z,25.40
2022-08-16T23:10:38.399Z,25.39
2022-08-16T23:13:28.080Z,25.38
2022-08-16T23:16:17.148Z,25.23
2022-08-16T23:19:09.394Z,25.18
2022-08-16T23:21:58.106Z,25.19
2022-08-16T23:24:56.991Z,25.16
2022-08-16T23:27:45.548Z,25.03
2022-08-16T23:30:36.784Z,25.11
2022-08-16T23:33:29.724Z,25.03
2022-08-16T23:36:18.060Z,24.98
2022-08-16T23:39:06.568Z,25.06
2022-08-16T23:41:56.735Z,24.98
2022-08-16T23:44:59.076Z,24.84
2022-08-16T23:47:47.752Z,24.60
2022-08-16T23:50:38.344Z,24.38
2022-08-16T23:53:28.830Z,24.43
2022-08-16T23:56:20.416Z,23.73
2022-08-16T23:59:10.275Z,23.94
